createdAt,value
2022-10-19T00:04:25.187Z,985.926
2022-10-19T00:34:27.561Z,985.914
2022-10-19T01:04:34.003Z,985.745
2022-10-19T01:34:37.601Z,985.69
2022-10-19T02:04:37.736Z,985.519
2022-10-19T02:34:44.686Z,985.301
2022-10-19T03:34:55.264Z,985.06
2022-10-19T04:05:02.286Z,984.977
2022-10-19T04:35:08.227Z,984.893
2022-10-19T05:05:09.894Z,984.789
2022-10-19T05:35:12.108Z,984.585
2022-10-19T06:05:14.033Z,984.659
2022-10-19T06:35:16.200Z,984.884
2022-10-19T07:05:21.257Z,984.916
2022-10-19T07:35:24.254Z,985.019
2022-10-19T08:05:34.132Z,984.957
2022-10-19T08:35:36.102Z,984.9
2022-10-19T09:05:41.056Z,984.726
2022-10-19T09:35:46.152Z,984.827
2022-10-19T10:05:55.805Z,984.597
2022-10-19T10:36:01.575Z,984.201
2022-10-19T11:06:11.019Z,983.732
2022-10-19T11:36:11.514Z,983.455
2022-10-19T12:06:12.122Z,983.043
2022-10-19T12:36:20.480Z,982.768
2022-10-19T13:06:28.437Z,982.269
2022-10-19T13:36:29.075Z,982.008
2022-10-19T14:06:38.075Z,981.689
2022-10-19T14:36:40.403Z,981.683
2022-10-19T15:06:49.644Z,981.555
2022-10-19T15:36:56.510Z,981.358
2022-10-19T16:06:58.244Z,981.446
2022-10-19T16:37:00.342Z,981.279
2022-10-19T17:00:05.333Z,981.424
2022-10-19T17:30:05.483Z,981.306
2022-10-19T18:00:15.956Z,981.529
2022-10-19T18:30:19.937Z,981.382
2022-10-19T19:00:28.582Z,981.243
2022-10-19T19:30:37.101Z,980.965
2022-10-19T20:00:45.010Z,980.643
2022-10-19T20:30:53.966Z,980.873
2022-10-19T21:00:56.054Z,980.842
2022-10-19T21:31:05.665Z,980.715
2022-10-19T22:01:12.669Z,980.563
2022-10-19T22:45:13.933Z,980.071
2022-10-19T23:16:22.062Z,979.721
